This is the latest recevied weather packets stored in our database for station/object DM3DP. If no packets are shown the sender has not sent any weather packets the latest 10 day(s).
| Time | Temp. | Humidity | Pressure | Rain* | Wind** | Luminosity | Snow |
|---|---|---|---|---|---|---|---|
| 1777841606 | 14.44° C | 93% | 1010.7 hPa | 0 mm | - | 0 W/m² | - |
| 1777840616 | 14.44° C | 93% | 1010.7 hPa | 0 mm | - | 0 W/m² | - |
| 1777840286 | 15° C | 92% | 1010.7 hPa | 0 mm | - | 0 W/m² | - |
| 1777839957 | 15° C | 92% | 1010.7 hPa | 0 mm | - | 0 W/m² | - |
| 1777837977 | 15° C | 92% | 1010.7 hPa | 0 mm | - | 0 W/m² | - |
| 1777836987 | 15.56° C | 93% | 1010.7 hPa | 0 mm | - | 0 W/m² | - |
| 1777835667 | 15.56° C | 93% | 1010.5 hPa | 0 mm | - | 0 W/m² | - |
| 1777834346 | 16.11° C | 92% | 1010.3 hPa | 0 mm | - | 1 W/m² | - |
| 1777833686 | 16.11° C | 92% | 1010.2 hPa | 0 mm | - | 5 W/m² | - |
| 1777833356 | 16.11° C | 92% | 1010.1 hPa | 0 mm | - | 6 W/m² | - |
| 1777833027 | 16.11° C | 91% | 1010 hPa | 0 mm | - | 6 W/m² | - |
| 1777832696 | 16.11° C | 91% | 1010 hPa | 0 mm | - | 6 W/m² | - |
| 1777829726 | 16.67° C | 90% | 1010.1 hPa | 0 mm | - | 13 W/m² | - |
| 1777827416 | 17.22° C | 87% | 1010.1 hPa | 0.51 mm | - | 19 W/m² | - |
| 1777827087 | 17.22° C | 87% | 1010.3 hPa | 0.51 mm | - | 20 W/m² | - |
| 1777825766 | 17.78° C | 85% | 1010.4 hPa | 0.25 mm | - | 44 W/m² | - |
| 1777825106 | 17.78° C | 86% | 1010.3 hPa | 0.25 mm | - | 40 W/m² | - |
| 1777824446 | 17.78° C | 85% | 1010.3 hPa | 0.51 mm | - | 43 W/m² | - |
| 1777824116 | 17.78° C | 85% | 1010.3 hPa | 0.51 mm | - | 50 W/m² | - |
| 1777823457 | 17.78° C | 84% | 1010.3 hPa | 0.51 mm | - | 45 W/m² | - |
| 1777822136 | 17.78° C | 81% | 1010.2 hPa | 0.76 mm | - | 48 W/m² | - |
| 1777821476 | 17.78° C | 80% | 1010.2 hPa | 0.76 mm | - | 64 W/m² | - |
| 1777821146 | 17.78° C | 78% | 1010.2 hPa | 0.51 mm | - | 44 W/m² | - |
| 1777820487 | 18.89° C | 78% | 1010.2 hPa | 0.25 mm | - | 20 W/m² | - |
| 1777816856 | 20° C | 69% | 1010 hPa | 0.25 mm | - | 116 W/m² | - |
* Rain latest hour (hover to see other rain measurements)
** Current wind speed in m/s (hover to see current wind gust speed)